Time;durP1;ratioP1;P1;durP2;ratioP2;P2;SDS_P1;SDS_P2;PMS_P1;PMS_P2;Temp;Humidity;BMP_temperature;BMP_pressure;BME280_temperature;BME280_humidity;BME280_pressure;Samples;Min_cycle;Max_cycle;Signal;HPM_P1;HPM_P2
2023/05/08 00:00:24;;;;;;;4.90;4.38;;;;;;;-146.25;86.19;52291.16;2087415;28;35806;-68
2023/05/08 00:01:28;;;;;;;5.78;4.35;;;;;;;-146.25;85.99;52274.94;2087538;28;28934;-69
2023/05/08 00:02:30;;;;;;;4.80;4.38;;;;;;;-146.25;86.50;52333.72;2078913;28;35686;-68
2023/05/08 00:03:34;;;;;;;4.72;4.18;;;;;;;-146.25;86.05;52315.47;2079153;28;35639;-69
2023/05/08 00:04:39;;;;;;;4.60;4.15;;;;;;;-146.25;86.70;52272.91;2086662;28;36333;-68
2023/05/08 00:05:41;;;;;;;4.45;4.05;;;;;;;-146.25;86.84;52323.59;2087522;28;20147;-69
2023/05/08 00:06:42;;;;;;;4.50;4.10;;;;;;;-146.25;86.75;52327.66;2079727;28;36945;-68
2023/05/08 00:07:44;;;;;;;5.22;4.70;;;;;;;-146.25;86.57;52315.47;2079953;28;33392;-69
2023/05/08 00:08:46;;;;;;;5.15;4.65;;;;;;;-146.25;86.95;52299.25;2080379;28;20046;-68
2023/05/08 00:09:48;;;;;;;5.20;4.70;;;;;;;-146.25;86.80;52321.56;2079953;28;35984;-69
2023/05/08 00:10:49;;;;;;;4.65;3.95;;;;;;;-146.25;86.46;52297.22;2080167;28;32681;-68
2023/05/08 00:11:51;;;;;;;5.18;4.32;;;;;;;-146.25;86.76;52287.09;2087134;28;35320;-68
2023/05/08 00:12:54;;;;;;;4.75;4.10;;;;;;;-146.25;86.77;52315.47;2087355;28;36273;-68
2023/05/08 00:13:55;;;;;;;5.28;4.55;;;;;;;-146.25;86.85;52327.66;2087165;28;37115;-68
2023/05/08 00:14:57;;;;;;;4.93;4.53;;;;;;;-146.25;87.07;52325.63;2087503;28;28009;-68
2023/05/08 00:15:59;;;;;;;5.03;4.53;;;;;;;-146.25;87.00;52319.53;2079731;28;35377;-69
2023/05/08 00:17:01;;;;;;;5.57;4.45;;;;;;;-146.25;87.35;52321.56;2078962;28;35996;-68
2023/05/08 00:18:03;;;;;;;5.05;4.45;;;;;;;-146.25;87.46;52301.28;2079258;28;34925;-69
2023/05/08 00:19:05;;;;;;;5.00;4.60;;;;;;;-146.25;87.17;52291.16;2087077;28;36463;-68
2023/05/08 00:20:07;;;;;;;5.22;4.72;;;;;;;-146.25;87.73;52309.41;2087679;28;20033;-68
2023/05/08 00:21:09;;;;;;;4.90;4.43;;;;;;;-146.25;87.90;52351.97;2079688;28;34322;-68
2023/05/08 00:22:11;;;;;;;6.55;4.78;;;;;;;-146.25;88.27;52323.59;2079377;28;35631;-69
2023/05/08 00:23:12;;;;;;;5.82;5.13;;;;;;;-146.25;88.19;52315.47;2080061;28;20049;-68
2023/05/08 00:24:17;;;;;;;5.90;5.30;;;;;;;-146.25;88.35;52311.44;2079966;28;36706;-69
2023/05/08 00:25:21;;;;;;;5.47;4.97;;;;;;;-146.25;88.11;52321.56;2080593;28;20839;-69
2023/05/08 00:26:23;;;;;;;5.63;4.97;;;;;;;-146.25;88.40;52313.44;2079804;28;36786;-68
2023/05/08 00:27:24;;;;;;;6.35;4.97;;;;;;;-146.25;87.98;52321.56;2080187;28;26317;-68
2023/05/08 00:28:26;;;;;;;5.15;4.75;;;;;;;-146.25;87.92;52335.75;2079466;28;20211;-68
2023/05/08 00:29:28;;;;;;;5.43;4.93;;;;;;;-146.25;88.50;52299.25;2079513;28;24128;-69
2023/05/08 00:30:30;;;;;;;5.72;5.13;;;;;;;-146.25;88.44;52293.19;2079581;28;28548;-68
2023/05/08 00:31:32;;;;;;;5.00;4.50;;;;;;;-146.25;87.95;52305.34;2086799;28;33770;-69
2023/05/08 00:32:34;;;;;;;6.60;5.30;;;;;;;-146.25;88.20;52317.50;2079668;28;23229;-69
2023/05/08 00:33:36;;;;;;;6.03;5.40;;;;;;;-146.25;88.63;52345.91;2070940;28;28145;-69
2023/05/08 00:34:37;;;;;;;5.18;4.68;;;;;;;-146.25;88.38;52303.31;2079480;28;30852;-69
2023/05/08 00:35:42;;;;;;;5.45;4.95;;;;;;;-146.25;88.62;52307.38;2079711;28;29593;-68
2023/05/08 00:36:44;;;;;;;5.80;4.97;;;;;;;-146.25;88.82;52274.94;2080091;28;31079;-67
2023/05/08 00:37:45;;;;;;;5.63;5.13;;;;;;;-146.25;88.36;52303.31;2087638;28;27046;-68
2023/05/08 00:38:47;;;;;;;5.63;5.13;;;;;;;-146.25;88.89;52325.63;2079931;28;20063;-68
2023/05/08 00:39:49;;;;;;;6.00;5.40;;;;;;;-146.25;88.66;52276.97;2071022;28;30259;-68
2023/05/08 00:40:50;;;;;;;7.05;5.60;;;;;;;-146.25;88.71;52339.81;2071579;28;20431;-68
2023/05/08 00:41:52;;;;;;;6.75;5.25;;;;;;;-146.25;88.56;52287.09;2079346;28;29411;-68
2023/05/08 00:42:54;;;;;;;6.30;5.70;;;;;;;-146.25;88.91;52309.41;2079846;28;26011;-68
2023/05/08 00:43:56;;;;;;;5.45;4.95;;;;;;;-146.25;88.29;52303.31;2087481;28;20135;-68
2023/05/08 00:44:57;;;;;;;6.38;5.32;;;;;;;-146.25;88.74;52343.88;2088220;28;20044;-68
2023/05/08 00:46:00;;;;;;;6.45;5.65;;;;;;;-146.25;88.47;52343.88;2079917;28;29712;-68
2023/05/08 00:47:05;;;;;;;7.00;5.40;;;;;;;-146.25;89.00;52311.44;2080576;28;20034;-68
2023/05/08 00:48:07;;;;;;;6.25;5.45;;;;;;;-146.25;89.17;52362.13;2079733;28;30466;-68
2023/05/08 00:49:12;;;;;;;6.05;5.43;;;;;;;-146.25;89.41;52341.84;2079745;28;20038;-68
2023/05/08 00:50:13;;;;;;;6.43;5.35;;;;;;;-146.25;88.72;52358.06;2079906;28;20042;-68
2023/05/08 00:51:16;;;;;;;8.15;6.30;;;;;;;-146.25;89.20;52309.41;2079824;28;34768;-68
2023/05/08 00:52:19;;;;;;;6.80;6.05;;;;;;;-146.25;89.43;52301.28;2079733;28;20077;-68
2023/05/08 00:53:22;;;;;;;6.95;5.50;;;;;;;-146.25;89.55;52343.88;2071709;28;20863;-68
2023/05/08 00:54:25;;;;;;;6.28;5.47;;;;;;;-146.25;89.23;52309.41;2079744;28;20042;-68
2023/05/08 00:55:28;;;;;;;6.10;5.50;;;;;;;-146.25;89.67;52335.75;2087665;28;20173;-68
2023/05/08 00:56:31;;;;;;;6.07;5.47;;;;;;;-146.25;89.50;52313.44;2086481;28;34515;-68
2023/05/08 00:57:34;;;;;;;7.13;6.22;;;;;;;-146.25;89.31;52356.03;2079721;28;29381;-68
2023/05/08 00:58:37;;;;;;;6.40;5.80;;;;;;;-146.25;89.93;52331.69;2071566;28;20931;-68
2023/05/08 00:59:40;;;;;;;6.68;5.97;;;;;;;-146.25;90.23;52305.34;2072233;28;20043;-68
2023/05/08 01:00:44;;;;;;;6.68;6.07;;;;;;;-146.25;89.95;52295.19;2072120;28;21923;-67
2023/05/08 01:01:47;;;;;;;7.22;6.45;;;;;;;-146.25;90.26;52325.63;2071680;28;30618;-68
2023/05/08 01:02:49;;;;;;;6.70;6.10;;;;;;;-146.25;90.18;52313.44;2071775;28;20133;-67
2023/05/08 01:03:51;;;;;;;6.75;6.05;;;;;;;-146.25;90.51;52329.66;2070868;28;32004;-69
2023/05/08 01:04:54;;;;;;;7.20;6.45;;;;;;;-146.25;90.68;52299.25;2071562;28;20767;-68
2023/05/08 01:05:56;;;;;;;7.65;6.60;;;;;;;-146.25;90.55;52319.53;2071694;28;20031;-69
2023/05/08 01:06:58;;;;;;;6.60;5.93;;;;;;;-146.25;90.74;52291.16;2079369;28;30698;-67
2023/05/08 01:08:00;;;;;;;7.72;6.38;;;;;;;-146.25;90.98;52343.88;2080253;28;20038;-69
2023/05/08 01:09:02;;;;;;;7.75;6.20;;;;;;;-146.25;91.15;52311.44;2087399;28;27324;-69
2023/05/08 01:10:08;;;;;;;6.90;6.20;;;;;;;-146.25;91.13;52301.28;2079127;28;31002;-69
2023/05/08 01:11:46;;;;;;;8.30;5.82;;;;;;;-146.25;91.78;52313.44;2079543;28;28416;-68
2023/05/08 01:13:21;;;;;;;7.40;6.68;;;;;;;-146.25;90.83;52307.38;2073733;28;30030;-69
2023/05/08 01:15:04;;;;;;;7.15;6.38;;;;;;;-146.25;91.50;52321.56;2080357;28;20042;-69
2023/05/08 01:16:15;;;;;;;6.70;6.00;;;;;;;-146.25;91.30;52349.94;2087076;28;24107;-69
2023/05/08 01:18:07;;;;;;;8.70;6.95;;;;;;;-146.25;91.72;52307.38;2082003;28;20089;-68
2023/05/08 01:19:56;;;;;;;7.85;6.68;;;;;;;-146.25;91.20;52299.25;2079708;28;31384;-67
2023/05/08 01:21:20;;;;;;;6.93;6.22;;;;;;;-146.25;91.69;52341.84;2079225;28;26355;-67
2023/05/08 01:22:46;;;;;;;6.75;6.07;;;;;;;-146.25;91.95;52327.66;2079878;28;20121;-68
2023/05/08 01:24:39;;;;;;;7.55;6.78;;;;;;;-146.25;91.87;52331.69;2080826;28;20168;-69
2023/05/08 01:26:12;;;;;;;8.25;6.00;;;;;;;-146.25;92.10;52323.59;2087573;28;20968;-69
2023/05/08 01:28:04;;;;;;;10.45;6.80;;;;;;;-146.25;92.18;52335.75;2079564;28;20041;-69
2023/05/08 01:29:24;;;;;;;9.02;6.13;;;;;;;-146.25;92.22;52305.34;2077752;28;21655;-69
2023/05/08 01:30:57;;;;;;;;;;;;;;;-146.25;92.91;52333.72;2074032;28;24132;-69
2023/05/08 01:32:10;;;;;;;8.45;6.22;;;;;;;-146.25;92.44;52311.44;2075097;28;23238;-69
2023/05/08 01:33:34;;;;;;;6.88;6.20;;;;;;;-146.25;92.67;52349.94;2079764;28;20038;-68
2023/05/08 01:34:48;;;;;;;8.95;6.97;;;;;;;-146.25;93.31;52333.72;2080864;28;20034;-68
2023/05/08 01:35:58;;;;;;;8.98;6.88;;;;;;;-146.25;92.97;52315.47;2074591;28;20908;-68
2023/05/08 01:37:20;;;;;;;7.93;6.97;;;;;;;-146.25;92.76;52335.75;2075446;28;26841;-69
2023/05/08 01:38:33;;;;;;;8.10;6.70;;;;;;;-146.25;92.97;52331.69;2076194;28;20101;-68
2023/05/08 01:39:54;;;;;;;7.40;6.70;;;;;;;-146.25;92.68;52325.63;2075769;28;20061;-69
2023/05/08 01:41:06;;;;;;;6.55;5.95;;;;;;;-146.25;92.55;52337.78;2081148;28;20030;-69
2023/05/08 01:42:34;;;;;;;7.78;6.97;;;;;;;-146.25;93.25;52276.97;2080208;28;35197;-68
2023/05/08 01:43:54;;;;;;;7.32;6.53;;;;;;;-146.25;93.47;52299.25;2075975;28;20896;-69
2023/05/08 01:45:04;;;;;;;7.28;6.57;;;;;;;-146.25;93.62;52295.19;2081366;28;20868;-68
2023/05/08 01:46:18;;;;;;;7.38;6.57;;;;;;;-146.25;93.24;52323.59;2089449;28;20034;-68
2023/05/08 01:47:24;;;;;;;8.73;7.13;;;;;;;-146.25;93.23;52335.75;2078078;28;20092;-68
2023/05/08 01:48:38;;;;;;;8.20;7.28;;;;;;;-146.25;93.87;52341.84;2074610;28;25377;-69
2023/05/08 01:49:48;;;;;;;7.55;6.85;;;;;;;-146.25;94.27;52335.75;2072877;28;20096;-68
2023/05/08 01:51:13;;;;;;;7.50;6.50;;;;;;;-146.25;93.89;52291.16;2066581;28;21090;-68
2023/05/08 01:52:28;;;;;;;7.72;6.95;;;;;;;-146.25;94.74;52299.25;2066798;28;35814;-68
2023/05/08 01:53:37;;;;;;;7.10;6.40;;;;;;;-146.25;94.19;52303.31;2068425;28;20053;-69
2023/05/08 01:54:49;;;;;;;6.97;6.28;;;;;;;-146.25;94.14;52285.06;2068697;28;20789;-68
2023/05/08 01:55:58;;;;;;;7.18;6.47;;;;;;;-146.25;94.26;52291.16;2081028;28;25706;-68
2023/05/08 01:57:03;;;;;;;7.63;6.45;;;;;;;-146.25;94.95;52339.81;2080831;28;20053;-68
2023/05/08 01:58:09;;;;;;;8.38;7.45;;;;;;;-146.25;94.45;52327.66;2080480;28;20042;-69
2023/05/08 01:59:18;;;;;;;7.05;6.43;;;;;;;-146.25;94.82;52270.88;2073586;28;20227;-68
2023/05/08 02:00:22;;;;;;;9.02;6.50;;;;;;;-146.25;94.43;52315.47;2072460;28;33099;-68
2023/05/08 02:01:28;;;;;;;8.23;6.78;;;;;;;-146.25;94.28;52317.50;2081799;28;20111;-68
2023/05/08 02:02:31;;;;;;;8.07;6.32;;;;;;;-146.25;94.40;52291.16;2080280;28;29280;-67
2023/05/08 02:03:34;;;;;;;7.63;6.88;;;;;;;-146.25;94.05;52325.63;2080720;28;20121;-69
2023/05/08 02:04:37;;;;;;;6.93;6.22;;;;;;;-146.25;94.38;52333.72;2080238;28;26248;-68
2023/05/08 02:05:42;;;;;;;7.97;6.20;;;;;;;-146.25;94.51;52331.69;2080507;28;20117;-69
2023/05/08 02:06:44;;;;;;;7.07;6.43;;;;;;;-146.25;94.80;52315.47;2072707;28;28252;-68
2023/05/08 02:07:48;;;;;;;8.73;7.00;;;;;;;-146.25;94.48;52276.97;2080581;28;23571;-69
2023/05/08 02:08:51;;;;;;;7.28;6.47;;;;;;;-146.25;94.47;52327.66;2064467;28;31819;-68
2023/05/08 02:09:56;;;;;;;7.78;6.97;;;;;;;-146.25;94.92;52313.44;2073586;28;20046;-69
2023/05/08 02:11:00;;;;;;;7.50;6.70;;;;;;;-146.25;95.25;52327.66;2080735;28;20105;-69
2023/05/08 02:12:05;;;;;;;7.60;6.90;;;;;;;-146.25;95.00;52297.22;2072397;28;20050;-69
2023/05/08 02:13:12;;;;;;;7.28;6.57;;;;;;;-146.25;95.28;52327.66;2072940;28;20513;-69
2023/05/08 02:14:17;;;;;;;7.60;6.90;;;;;;;-146.25;95.10;52274.94;2081184;28;28257;-68
2023/05/08 02:15:21;;;;;;;7.45;6.75;;;;;;;-146.25;95.15;52343.88;2088727;28;20073;-69
2023/05/08 02:16:24;;;;;;;8.75;6.65;;;;;;;-146.25;94.61;52349.94;2080429;28;20050;-68
2023/05/08 02:17:28;;;;;;;7.30;6.60;;;;;;;-146.25;94.89;52343.88;2056015;28;37455;-68
2023/05/08 02:18:31;;;;;;;8.07;7.25;;;;;;;-146.25;94.32;52354.00;2072392;28;25801;-69
2023/05/08 02:19:34;;;;;;;7.55;6.78;;;;;;;-146.25;94.52;52349.94;2072592;28;20172;-68
2023/05/08 02:20:38;;;;;;;7.45;6.72;;;;;;;-146.25;94.84;52337.78;2072000;28;28477;-68
2023/05/08 02:21:40;;;;;;;8.05;7.25;;;;;;;-146.25;94.97;52337.78;2080310;28;28158;-68
2023/05/08 02:22:44;;;;;;;6.97;6.32;;;;;;;-146.25;95.20;52311.44;2088818;28;20076;-69
2023/05/08 02:23:50;;;;;;;7.05;6.35;;;;;;;-146.25;94.70;52311.44;2087558;28;31847;-68
2023/05/08 02:24:54;;;;;;;7.13;6.43;;;;;;;-146.25;95.01;52299.25;2081919;28;20057;-68
2023/05/08 02:25:57;;;;;;;7.05;6.35;;;;;;;-146.25;94.84;52305.34;2079794;28;36153;-68
2023/05/08 02:27:02;;;;;;;7.35;6.65;;;;;;;-146.25;94.49;52337.78;2072676;28;24452;-68
2023/05/08 02:28:06;;;;;;;7.57;6.45;;;;;;;-146.25;94.59;52343.88;2072558;28;20054;-68
2023/05/08 02:29:08;;;;;;;7.55;6.78;;;;;;;-146.25;95.21;52325.63;2072402;28;37080;-67
2023/05/08 02:30:13;;;;;;;9.05;7.00;;;;;;;-146.25;94.92;52283.03;2080002;28;30689;-68
2023/05/08 02:31:17;;;;;;;7.38;6.57;;;;;;;-146.25;95.17;52351.97;2071680;28;26554;-68
2023/05/08 02:32:22;;;;;;;8.05;7.25;;;;;;;-146.25;94.97;52331.69;2064902;28;27876;-69
2023/05/08 02:33:28;;;;;;;7.43;6.72;;;;;;;-146.25;95.54;52303.31;2072862;28;31374;-68
2023/05/08 02:34:31;;;;;;;9.32;6.95;;;;;;;-146.25;95.43;52307.38;2081457;28;20042;-68
2023/05/08 02:35:35;;;;;;;8.30;7.28;;;;;;;-146.25;95.64;52327.66;2080654;28;20034;-69
2023/05/08 02:36:38;;;;;;;8.18;7.25;;;;;;;-146.25;95.11;52295.19;2071961;28;25172;-68
2023/05/08 02:37:54;;;;;;;7.53;6.75;;;;;;;-146.25;95.42;52325.63;2073246;28;20038;-69
2023/05/08 02:39:01;;;;;;;7.78;6.97;;;;;;;-146.25;95.78;52315.47;2074984;28;23410;-68
2023/05/08 02:40:07;;;;;;;9.10;7.05;;;;;;;-146.25;95.55;52335.75;2080858;28;20776;-68
2023/05/08 02:41:11;;;;;;;7.68;6.88;;;;;;;-146.25;95.67;52307.38;2080951;28;20092;-69
2023/05/08 02:42:14;;;;;;;8.15;7.32;;;;;;;-146.25;95.72;52309.41;2072418;28;20115;-68
2023/05/08 02:43:18;;;;;;;7.47;6.78;;;;;;;-146.25;95.96;52297.22;2065154;28;20074;-69
2023/05/08 02:44:20;;;;;;;8.07;6.40;;;;;;;-146.25;95.67;52319.53;2064805;28;20157;-68
2023/05/08 02:45:27;;;;;;;9.27;7.10;;;;;;;-146.25;95.43;52317.50;2071362;28;27886;-68
2023/05/08 02:47:01;;;;;;;8.02;7.22;;;;;;;-146.25;95.55;52335.75;2073710;28;20836;-69
2023/05/08 02:48:21;;;;;;;8.20;7.05;;;;;;;-146.25;96.09;52317.50;2077660;28;20123;-68
2023/05/08 02:49:45;;;;;;;7.63;6.82;;;;;;;-146.25;96.17;52299.25;2083626;28;20037;-69
2023/05/08 02:51:17;;;;;;;7.82;7.05;;;;;;;-146.25;96.27;52305.34;2080139;28;20034;-69
2023/05/08 02:52:28;;;;;;;7.53;6.82;;;;;;;-146.25;96.00;52295.19;2072324;28;20367;-67
2023/05/08 02:53:36;;;;;;;8.07;7.15;;;;;;;-146.25;96.76;52327.66;2075893;28;20101;-68
2023/05/08 02:54:56;;;;;;;8.02;7.22;;;;;;;-146.25;96.33;52339.81;2079982;28;20085;-68
2023/05/08 02:56:10;;;;;;;7.57;6.75;;;;;;;-146.25;96.81;52317.50;2073753;28;21501;-69
2023/05/08 02:57:45;;;;;;;8.70;7.85;;;;;;;-146.25;96.46;52360.09;2081762;28;27611;-68
2023/05/08 02:59:05;;;;;;;8.70;7.80;;;;;;;-146.25;97.01;52317.50;2064386;28;27933;-69
2023/05/08 03:00:17;;;;;;;9.05;7.82;;;;;;;-146.25;97.20;52351.97;2072251;28;20958;-68
2023/05/08 03:01:44;;;;;;;9.27;8.07;;;;;;;-146.25;97.30;52319.53;2083548;28;20048;-69
2023/05/08 03:02:56;;;;;;;8.98;7.78;;;;;;;-146.25;97.02;52287.09;2080458;28;21137;-68
2023/05/08 03:04:07;;;;;;;9.00;8.10;;;;;;;-146.25;97.51;52335.75;2074610;28;25734;-68
2023/05/08 03:05:30;;;;;;;10.00;8.13;;;;;;;-146.25;97.20;52317.50;2074354;28;20113;-68
2023/05/08 03:06:43;;;;;;;10.05;7.82;;;;;;;-146.25;97.61;52327.66;2076249;28;20046;-68
2023/05/08 03:07:51;;;;;;;9.32;7.95;;;;;;;-146.25;97.76;52293.19;2080480;28;20026;-69
2023/05/08 03:09:00;;;;;;;10.35;8.25;;;;;;;-146.25;97.49;52319.53;2074036;28;20100;-69
2023/05/08 03:10:09;;;;;;;9.20;8.02;;;;;;;-146.25;97.82;52311.44;2073398;28;31951;-68
2023/05/08 03:11:20;;;;;;;9.60;8.38;;;;;;;-146.25;98.47;52311.44;2080032;28;28792;-69
2023/05/08 03:12:26;;;;;;;10.52;8.48;;;;;;;-146.25;98.35;52311.44;2080660;28;23880;-67
2023/05/08 03:13:33;;;;;;;9.30;8.35;;;;;;;-146.25;98.50;52362.13;2080112;28;20152;-69
2023/05/08 03:14:43;;;;;;;9.65;8.73;;;;;;;-146.25;98.36;52335.75;2072507;28;20815;-68
2023/05/08 03:15:53;;;;;;;11.10;7.93;;;;;;;-146.25;98.74;52327.66;2081589;28;21705;-69
2023/05/08 03:16:59;;;;;;;10.73;9.35;;;;;;;-146.25;98.26;52360.09;2070307;28;20287;-68
2023/05/08 03:18:13;;;;;;;9.20;8.20;;;;;;;-146.25;98.56;52327.66;2072434;28;24573;-68
2023/05/08 03:19:37;;;;;;;9.00;8.10;;;;;;;-146.25;98.52;52339.81;2072082;28;20120;-68
2023/05/08 03:20:46;;;;;;;9.77;8.77;;;;;;;-146.25;99.07;52319.53;2067041;28;20058;-68
2023/05/08 03:21:50;;;;;;;9.65;8.65;;;;;;;-146.25;98.47;52283.03;2079647;28;32563;-68
2023/05/08 03:22:54;;;;;;;8.95;8.07;;;;;;;-146.25;98.74;52313.44;2071466;28;25592;-68
2023/05/08 03:24:00;;;;;;;9.25;8.25;;;;;;;-146.25;98.42;52319.53;2056707;28;20050;-68
2023/05/08 03:25:08;;;;;;;9.80;8.82;;;;;;;-146.25;98.73;52315.47;2056591;28;33358;-69
2023/05/08 03:26:17;;;;;;;10.48;9.27;;;;;;;-146.25;98.93;52333.72;2065356;28;20046;-69
2023/05/08 03:27:20;;;;;;;9.52;8.52;;;;;;;-146.25;98.55;52347.91;2065909;28;20047;-68
2023/05/08 03:28:24;;;;;;;9.52;8.63;;;;;;;-146.25;98.72;52331.69;2055728;28;20127;-68
2023/05/08 03:29:29;;;;;;;11.05;9.75;;;;;;;-146.25;98.46;52345.91;2063978;28;20233;-69
2023/05/08 03:30:36;;;;;;;9.25;8.20;;;;;;;-146.25;98.41;52303.31;2072742;28;21038;-69
2023/05/08 03:31:43;;;;;;;10.23;8.77;;;;;;;-146.25;98.35;52319.53;2080153;28;20054;-68
2023/05/08 03:32:47;;;;;;;9.85;8.85;;;;;;;-146.25;98.56;52319.53;2078622;28;21018;-69
2023/05/08 03:33:53;;;;;;;9.82;8.75;;;;;;;-146.25;98.60;52319.53;2065212;28;29917;-69
2023/05/08 03:34:58;;;;;;;9.98;8.93;;;;;;;-146.25;98.68;52315.47;2080243;28;20134;-67
2023/05/08 03:35:59;;;;;;;12.48;9.35;;;;;;;-146.25;98.70;52303.31;2081215;28;20997;-69
2023/05/08 03:37:01;;;;;;;10.07;9.07;;;;;;;-146.25;98.48;52351.97;2080240;28;20034;-68
2023/05/08 03:38:05;;;;;;;10.15;9.15;;;;;;;-146.25;98.27;52351.97;2072132;28;20919;-68
2023/05/08 03:39:07;;;;;;;10.32;9.23;;;;;;;-146.25;98.26;52343.88;2071722;28;20054;-68
2023/05/08 03:40:10;;;;;;;10.77;9.68;;;;;;;-146.25;98.41;52335.75;2071919;28;20046;-69
2023/05/08 03:41:15;;;;;;;10.00;8.95;;;;;;;-146.25;98.43;52270.88;2072015;28;21066;-68
2023/05/08 03:42:20;;;;;;;10.60;9.15;;;;;;;-146.25;98.52;52325.63;2079461;28;23672;-69
2023/05/08 03:43:23;;;;;;;10.30;9.13;;;;;;;-146.25;98.47;52347.91;2080868;28;20431;-68
2023/05/08 03:44:28;;;;;;;10.60;9.52;;;;;;;-146.25;98.95;52321.56;2080093;28;26455;-68
2023/05/08 03:45:35;;;;;;;10.25;9.25;;;;;;;-146.25;98.24;52323.59;2071805;28;32734;-69
2023/05/08 03:46:38;;;;;;;9.82;8.82;;;;;;;-146.25;98.16;52339.81;2073677;28;20878;-69
2023/05/08 03:47:40;;;;;;;10.25;9.15;;;;;;;-146.25;98.52;52299.25;2072730;28;20815;-69
2023/05/08 03:48:45;;;;;;;11.20;9.57;;;;;;;-146.25;98.50;52313.44;2071755;28;21086;-69
2023/05/08 03:49:49;;;;;;;10.40;8.75;;;;;;;-146.25;98.14;52325.63;2064874;28;20161;-68
2023/05/08 03:50:52;;;;;;;11.27;8.35;;;;;;;-146.25;98.07;52327.66;2072339;28;20128;-69
2023/05/08 03:51:55;;;;;;;10.63;8.73;;;;;;;-146.25;98.32;52351.97;2080127;28;20070;-69
2023/05/08 03:53:00;;;;;;;10.15;9.15;;;;;;;-146.25;98.04;52303.31;2080152;28;20041;-69
2023/05/08 03:54:03;;;;;;;10.82;9.00;;;;;;;-146.25;98.10;52345.91;2071912;28;20129;-69
2023/05/08 03:55:06;;;;;;;11.20;9.52;;;;;;;-146.25;98.24;52323.59;2079805;28;22637;-69
2023/05/08 03:56:08;;;;;;;13.90;9.48;;;;;;;-146.25;98.40;52347.91;2079906;28;20042;-68
2023/05/08 03:57:10;;;;;;;9.95;8.93;;;;;;;-146.25;98.50;52311.44;2071594;28;20249;-69
2023/05/08 03:58:40;;;;;;;9.80;8.80;;;;;;;-146.25;97.99;52323.59;2087599;28;20887;-69
2023/05/08 04:00:24;;;;;;;10.18;8.43;;;;;;;-146.25;98.07;52339.81;2084201;28;20100;-68
2023/05/08 04:02:02;;;;;;;9.30;8.27;;;;;;;-146.25;97.54;52333.72;2079607;28;20042;-68
2023/05/08 04:03:31;;;;;;;10.43;8.75;;;;;;;-146.25;97.83;52315.47;2071618;28;20962;-68
2023/05/08 04:04:42;;;;;;;9.77;8.88;;;;;;;-146.25;97.94;52335.75;2074260;28;20995;-68
2023/05/08 04:06:09;;;;;;;9.82;8.93;;;;;;;-146.25;97.42;52321.56;2072318;28;20073;-69
2023/05/08 04:07:33;;;;;;;10.65;9.55;;;;;;;-146.25;97.38;52329.66;2074238;28;22603;-68
2023/05/08 04:08:46;;;;;;;10.10;8.75;;;;;;;-146.25;97.15;52327.66;2074635;28;20042;-68
2023/05/08 04:10:07;;;;;;;10.15;8.30;;;;;;;-146.25;97.28;52351.97;2081534;28;20097;-69
2023/05/08 04:11:31;;;;;;;10.43;8.43;;;;;;;-146.25;97.25;52307.38;2078526;28;20047;-69
2023/05/08 04:12:42;;;;;;;9.35;8.45;;;;;;;-146.25;97.08;52319.53;2082255;28;25001;-69
2023/05/08 04:13:52;;;;;;;11.18;8.70;;;;;;;-146.25;96.95;52368.19;2079410;28;21018;-69
2023/05/08 04:15:23;;;;;;;11.70;8.30;;;;;;;-146.25;96.21;52323.59;2081351;28;20038;-69
2023/05/08 04:16:29;;;;;;;9.00;8.10;;;;;;;-146.25;94.92;52323.59;2079521;28;20042;-68
2023/05/08 04:18:14;;;;;;;10.15;9.10;;;;;;;-146.25;94.00;52347.91;2079548;28;24964;-69
2023/05/08 04:19:32;;;;;;;10.48;8.63;;;;;;;-146.25;92.98;52335.75;2070217;28;20039;-69
2023/05/08 04:20:38;;;;;;;8.57;7.78;;;;;;;-146.25;92.27;52311.44;2073454;28;20133;-69
2023/05/08 04:21:43;;;;;;;10.23;7.88;;;;;;;-146.25;92.52;52325.63;2080497;28;20045;-69
2023/05/08 04:22:48;;;;;;;8.35;7.55;;;;;;;-146.25;92.98;52305.34;2071200;28;20053;-68
2023/05/08 04:23:52;;;;;;;9.43;8.48;;;;;;;-146.25;92.99;52287.09;2072185;28;20092;-69
2023/05/08 04:24:58;;;;;;;9.30;8.32;;;;;;;-146.25;93.25;52349.94;2078587;28;20041;-69
2023/05/08 04:26:02;;;;;;;9.27;8.38;;;;;;;-146.25;93.77;52347.91;2070607;28;20050;-69
2023/05/08 04:27:08;;;;;;;8.32;7.53;;;;;;;-146.25;92.54;52309.41;2063709;28;24097;-69
2023/05/08 04:28:11;;;;;;;9.68;8.68;;;;;;;-146.25;91.20;52321.56;2071519;28;20049;-69
2023/05/08 04:29:13;;;;;;;8.77;7.88;;;;;;;-146.25;90.49;52333.72;2071121;28;20046;-69
2023/05/08 04:30:16;;;;;;;9.32;7.70;;;;;;;-146.25;89.82;52354.00;2079933;28;20042;-68
2023/05/08 04:31:18;;;;;;;8.45;7.72;;;;;;;-146.25;88.70;52305.34;2071018;28;20045;-69
2023/05/08 04:32:21;;;;;;;8.88;7.30;;;;;;;-146.25;87.01;52347.91;2072322;28;20038;-69
2023/05/08 04:33:24;;;;;;;8.73;7.82;;;;;;;-146.25;86.26;52374.28;2087722;28;20826;-69
2023/05/08 04:34:28;;;;;;;8.63;7.82;;;;;;;-146.25;85.25;52370.22;2079610;28;20061;-68
2023/05/08 04:35:32;;;;;;;7.78;6.97;;;;;;;-146.25;84.95;52356.03;2071827;28;20043;-69
2023/05/08 04:36:34;;;;;;;7.72;7.03;;;;;;;-146.25;83.80;52362.13;2080223;28;20045;-68
2023/05/08 04:37:40;;;;;;;7.20;6.53;;;;;;;-146.25;82.02;52354.00;2079264;28;20046;-69
2023/05/08 04:38:43;;;;;;;7.38;6.47;;;;;;;-146.25;80.93;52311.44;2071874;28;20057;-68
2023/05/08 04:39:50;;;;;;;6.57;5.97;;;;;;;-146.25;79.46;52360.09;2071825;28;20051;-69
2023/05/08 04:40:52;;;;;;;7.03;6.43;;;;;;;-146.25;77.45;52339.81;2072118;28;20851;-68
2023/05/08 04:42:00;;;;;;;7.50;6.80;;;;;;;-146.25;77.20;52311.44;2071160;28;20878;-68
2023/05/08 04:43:01;;;;;;;6.43;5.85;;;;;;;-146.25;75.99;52327.66;2072432;28;20180;-68
2023/05/08 04:44:04;;;;;;;7.38;6.47;;;;;;;-146.25;75.67;52354.00;2071722;28;20579;-69
2023/05/08 04:45:07;;;;;;;7.60;6.40;;;;;;;-146.25;75.80;52327.66;2071522;28;20260;-68
2023/05/08 04:46:09;;;;;;;7.07;5.93;;;;;;;-146.25;75.47;52343.88;2071619;28;20180;-68
2023/05/08 04:47:10;;;;;;;6.38;5.78;;;;;;;-146.25;73.57;52364.13;2079385;28;25703;-68
2023/05/08 04:48:12;;;;;;;6.65;5.70;;;;;;;-146.25;73.23;52343.88;2071983;28;20057;-69
2023/05/08 04:49:14;;;;;;;6.85;6.25;;;;;;;-146.25;72.63;52335.75;2072440;28;20035;-69
2023/05/08 04:50:16;;;;;;;6.60;6.00;;;;;;;-146.25;72.26;52325.63;2071511;28;20046;-67
2023/05/08 04:51:18;;;;;;;7.30;6.00;;;;;;;-146.25;71.32;52343.88;2071464;28;20061;-69
2023/05/08 04:52:19;;;;;;;5.93;5.43;;;;;;;-146.25;71.13;52311.44;2071508;28;20034;-68
2023/05/08 04:53:21;;;;;;;6.70;6.00;;;;;;;-146.25;70.99;52315.47;2071404;28;20050;-68
2023/05/08 04:54:23;;;;;;;6.43;5.78;;;;;;;-146.25;71.55;52315.47;2071169;28;20049;-68
2023/05/08 04:55:25;;;;;;;6.20;5.60;;;;;;;-146.25;70.26;52345.91;2071386;28;20220;-69
2023/05/08 04:56:27;;;;;;;5.85;5.35;;;;;;;-146.25;70.65;52343.88;2063168;28;20046;-69
2023/05/08 04:57:28;;;;;;;6.43;5.82;;;;;;;-146.25;70.28;52339.81;2071549;28;20137;-68
2023/05/08 04:58:32;;;;;;;6.38;5.85;;;;;;;-146.25;69.63;52343.88;2070970;28;20657;-68
2023/05/08 04:59:34;;;;;;;6.50;5.82;;;;;;;-146.25;68.14;52319.53;2071444;28;20046;-68
2023/05/08 05:00:36;;;;;;;7.13;5.57;;;;;;;-146.25;68.49;52362.13;2071047;28;20092;-69
2023/05/08 05:01:38;;;;;;;6.28;5.50;;;;;;;-146.25;66.24;52331.69;2062883;28;20187;-69
2023/05/08 05:02:39;;;;;;;6.32;5.72;;;;;;;-146.25;66.09;52331.69;2071167;28;25936;-69
2023/05/08 05:03:41;;;;;;;5.53;5.07;;;;;;;-146.25;66.68;52289.13;2080127;28;20038;-69
2023/05/08 05:04:43;;;;;;;6.50;5.75;;;;;;;-146.25;66.65;52321.56;2079205;28;21064;-69
2023/05/08 05:05:45;;;;;;;6.32;5.20;;;;;;;-146.25;69.95;52327.66;2079943;28;20103;-69
2023/05/08 05:06:47;;;;;;;5.57;5.07;;;;;;;-146.25;69.69;52345.91;2087074;28;20139;-69
2023/05/08 05:07:49;;;;;;;5.70;5.20;;;;;;;-146.25;72.91;52297.22;2079670;28;20042;-69
2023/05/08 05:08:53;;;;;;;6.30;5.68;;;;;;;-146.25;72.99;52297.22;2081283;28;20042;-69
2023/05/08 05:09:55;;;;;;;6.25;5.63;;;;;;;-146.25;73.68;52323.59;2074007;28;20073;-69
2023/05/08 05:11:00;;;;;;;5.95;5.45;;;;;;;-146.25;73.36;52305.34;2074483;28;20120;-69
2023/05/08 05:12:03;;;;;;;6.05;5.45;;;;;;;-146.25;73.71;52325.63;2074682;28;20148;-69
2023/05/08 05:13:05;;;;;;;6.28;5.72;;;;;;;-146.25;75.67;52345.91;2082476;28;21090;-69